createdAt,value
2022-07-25T00:00:25.647Z,13.58
2022-07-25T00:02:38.848Z,13.48
2022-07-25T00:04:48.396Z,13.41
2022-07-25T00:06:50.563Z,13.48
2022-07-25T00:08:52.532Z,13.40
2022-07-25T00:10:55.552Z,13.40
2022-07-25T00:12:57.663Z,13.48
2022-07-25T00:14:59.636Z,13.47
2022-07-25T00:17:01.644Z,13.52
2022-07-25T00:19:21.908Z,13.47
2022-07-25T00:21:24.012Z,13.50
2022-07-25T00:23:26.025Z,13.40
2022-07-25T00:25:28.068Z,13.42
2022-07-25T00:27:39.030Z,13.47
2022-07-25T00:29:41.080Z,13.50
2022-07-25T00:32:22.351Z,13.36
2022-07-25T00:34:44.574Z,13.32
2022-07-25T00:36:46.612Z,13.30
2022-07-25T00:39:10.971Z,13.33
2022-07-25T00:41:20.583Z,13.43
2022-07-25T00:43:22.720Z,13.37
2022-07-25T00:45:36.594Z,13.09
2022-07-25T00:47:44.294Z,13.20
2022-07-25T00:50:10.204Z,13.11
2022-07-25T00:52:17.975Z,13.02
2022-07-25T00:54:22.513Z,12.98
2022-07-25T00:57:02.400Z,13.03
2022-07-25T00:59:06.698Z,13.24
2022-07-25T01:01:17.710Z,13.29
2022-07-25T01:03:25.834Z,13.20
2022-07-25T01:05:33.875Z,13.12
2022-07-25T01:07:41.889Z,12.94
2022-07-25T01:09:51.214Z,13.01
2022-07-25T01:12:05.937Z,12.88
2022-07-25T01:14:32.791Z,12.89
2022-07-25T01:16:37.666Z,12.91
2022-07-25T01:18:46.705Z,12.91
2022-07-25T01:20:48.750Z,12.95
2022-07-25T01:23:00.676Z,12.81
2022-07-25T01:25:30.629Z,12.79
2022-07-25T01:27:43.947Z,12.67
2022-07-25T01:29:57.162Z,12.77
2022-07-25T01:32:31.074Z,12.78
2022-07-25T01:35:10.405Z,12.78
2022-07-25T01:37:25.867Z,12.76
2022-07-25T01:39:28.870Z,12.71
2022-07-25T01:41:31.001Z,12.79
2022-07-25T01:43:33.213Z,12.62
2022-07-25T01:45:35.433Z,12.66
2022-07-25T01:48:01.021Z,12.57
2022-07-25T01:50:09.677Z,12.54
2022-07-25T01:52:13.607Z,12.59
2022-07-25T01:54:33.649Z,12.62
2022-07-25T01:56:47.043Z,12.51
2022-07-25T01:58:51.712Z,12.62
2022-07-25T02:00:53.874Z,12.51
2022-07-25T02:03:27.939Z,12.45
2022-07-25T02:05:43.109Z,12.50
2022-07-25T02:07:46.142Z,12.52
2022-07-25T02:10:11.693Z,12.42
2022-07-25T02:12:13.619Z,12.45
2022-07-25T02:14:41.085Z,12.32
2022-07-25T02:16:43.139Z,12.32
2022-07-25T02:19:05.388Z,12.42
2022-07-25T02:21:14.558Z,12.40
2022-07-25T02:23:30.623Z,12.26
2022-07-25T02:25:34.977Z,12.15
2022-07-25T02:27:46.192Z,12.28
2022-07-25T02:29:48.178Z,12.32
2022-07-25T02:31:52.102Z,12.36
2022-07-25T02:33:54.008Z,12.29
2022-07-25T02:36:17.242Z,12.21
2022-07-25T02:38:30.428Z,12.27
2022-07-25T02:40:49.797Z,12.17
2022-07-25T02:43:04.869Z,12.07
2022-07-25T02:45:14.959Z,12.00
2022-07-25T02:47:26.921Z,11.96
2022-07-25T02:49:28.867Z,11.96
2022-07-25T02:51:31.757Z,12.01
2022-07-25T02:53:56.509Z,12.14
2022-07-25T02:56:00.980Z,12.09
2022-07-25T02:58:04.961Z,11.92
2022-07-25T03:00:07.860Z,11.99
2022-07-25T03:02:15.581Z,11.94
2022-07-25T03:04:20.658Z,12.16
2022-07-25T03:06:36.036Z,12.05
2022-07-25T03:08:43.982Z,12.16
2022-07-25T03:10:48.202Z,12.20
2022-07-25T03:12:50.081Z,12.28
2022-07-25T03:14:51.978Z,12.29
2022-07-25T03:17:38.360Z,12.41
2022-07-25T03:19:56.773Z,12.42
2022-07-25T03:22:20.381Z,12.41
2022-07-25T03:24:50.337Z,12.43
2022-07-25T03:26:52.358Z,12.55
2022-07-25T03:28:55.319Z,12.57
2022-07-25T03:31:22.380Z,12.73
2022-07-25T03:33:25.365Z,12.88
2022-07-25T03:35:48.985Z,13.16
2022-07-25T03:37:57.893Z,13.27
2022-07-25T03:40:12.643Z,13.34
2022-07-25T03:42:37.360Z,13.58
2022-07-25T03:44:40.366Z,13.66
2022-07-25T03:46:43.272Z,13.77
2022-07-25T03:49:03.811Z,14.31
2022-07-25T03:51:24.949Z,14.38
2022-07-25T03:53:55.905Z,14.38
2022-07-25T03:56:06.816Z,14.72
2022-07-25T03:58:16.726Z,14.80
2022-07-25T04:00:24.579Z,15.00
2022-07-25T04:02:40.866Z,15.21
2022-07-25T04:04:47.119Z,15.50
2022-07-25T04:06:50.997Z,15.96
2022-07-25T04:09:10.751Z,16.16
2022-07-25T04:11:14.932Z,15.93
2022-07-25T04:13:16.792Z,16.01
2022-07-25T04:15:22.775Z,16.18
2022-07-25T04:17:26.055Z,16.31
2022-07-25T04:19:38.221Z,16.55
2022-07-25T04:21:42.192Z,16.59
2022-07-25T04:24:02.850Z,16.51
2022-07-25T04:26:06.965Z,16.65
2022-07-25T04:28:10.932Z,16.97
2022-07-25T04:30:24.981Z,17.17
2022-07-25T04:32:41.364Z,17.22
2022-07-25T04:34:55.668Z,17.77
2022-07-25T04:36:57.652Z,18.16
2022-07-25T04:39:00.737Z,18.19
2022-07-25T04:41:16.803Z,18.32
2022-07-25T04:43:21.958Z,18.09
2022-07-25T04:45:24.290Z,18.35
2022-07-25T04:47:26.245Z,18.51
2022-07-25T04:49:30.214Z,18.43
2022-07-25T04:51:42.567Z,18.40
2022-07-25T04:53:44.786Z,18.50
2022-07-25T04:56:00.688Z,18.75
2022-07-25T04:58:02.660Z,18.90
2022-07-25T05:00:10.320Z,18.86
2022-07-25T05:02:16.464Z,18.89
2022-07-25T05:04:19.505Z,18.90
2022-07-25T05:06:33.577Z,19.69
2022-07-25T05:08:36.481Z,19.57
2022-07-25T05:10:39.365Z,20.24
2022-07-25T05:12:41.331Z,19.97
2022-07-25T05:14:52.150Z,19.59
2022-07-25T05:16:59.071Z,20.35
2022-07-25T05:19:09.932Z,19.96
2022-07-25T05:21:13.061Z,20.17
2022-07-25T05:23:20.257Z,20.94
2022-07-25T05:25:27.523Z,20.82
2022-07-25T05:27:29.477Z,21.07
2022-07-25T05:29:32.741Z,21.30
2022-07-25T05:31:37.431Z,21.01
2022-07-25T05:33:47.178Z,21.40
2022-07-25T05:35:51.151Z,21.53
2022-07-25T05:37:58.153Z,21.85
2022-07-25T05:40:01.137Z,21.64
2022-07-25T05:42:03.124Z,21.72
2022-07-25T05:44:11.024Z,21.90
2022-07-25T05:46:49.069Z,21.82
2022-07-25T05:49:13.143Z,21.69
2022-07-25T05:51:15.196Z,21.96
2022-07-25T05:53:36.519Z,21.61
2022-07-25T05:55:40.846Z,21.57
2022-07-25T05:57:49.311Z,21.95
2022-07-25T06:00:22.450Z,22.16
2022-07-25T06:02:27.675Z,22.14
2022-07-25T06:04:31.777Z,22.34
2022-07-25T06:06:33.718Z,21.93
2022-07-25T06:08:45.902Z,22.39
2022-07-25T06:11:08.301Z,22.39
2022-07-25T06:13:11.520Z,22.27
2022-07-25T06:15:42.117Z,22.48
2022-07-25T06:18:10.206Z,22.64
2022-07-25T06:20:41.689Z,22.61
2022-07-25T06:22:44.645Z,22.73
2022-07-25T06:25:06.409Z,22.95
2022-07-25T06:27:09.479Z,22.95
2022-07-25T06:29:36.344Z,22.44
2022-07-25T06:31:46.425Z,23.03
2022-07-25T06:34:00.492Z,23.26
2022-07-25T06:36:24.285Z,23.20
2022-07-25T06:38:51.052Z,23.27
2022-07-25T06:40:53.929Z,23.38
2022-07-25T06:43:02.690Z,23.32
2022-07-25T06:45:09.808Z,23.23
2022-07-25T06:47:21.667Z,24.08
2022-07-25T06:49:24.617Z,23.97
2022-07-25T06:51:34.485Z,23.47
2022-07-25T06:53:44.488Z,22.89
2022-07-25T06:55:47.130Z,22.96
2022-07-25T06:57:49.248Z,23.42
2022-07-25T06:59:55.791Z,23.53
2022-07-25T07:02:08.350Z,23.85
2022-07-25T07:04:13.381Z,22.64
2022-07-25T07:06:15.468Z,22.03
2022-07-25T07:08:31.555Z,21.61
2022-07-25T07:10:52.260Z,22.53
2022-07-25T07:13:26.556Z,22.52
2022-07-25T07:15:30.674Z,22.06
2022-07-25T07:17:38.865Z,21.91
2022-07-25T07:19:45.989Z,22.30
2022-07-25T07:21:55.885Z,22.06
2022-07-25T07:23:58.811Z,22.41
2022-07-25T07:26:01.736Z,23.83
2022-07-25T07:28:15.916Z,23.68
2022-07-25T07:30:25.407Z,25.06
2022-07-25T07:32:38.178Z,24.40
2022-07-25T07:34:50.048Z,23.72
2022-07-25T07:37:25.098Z,24.33
2022-07-25T07:39:29.024Z,24.41
2022-07-25T07:41:46.962Z,23.77
2022-07-25T07:43:51.012Z,24.30
2022-07-25T07:46:02.364Z,23.90
2022-07-25T07:48:19.236Z,23.88
2022-07-25T07:50:30.246Z,24.11
2022-07-25T07:52:32.127Z,24.83
2022-07-25T07:54:59.554Z,24.62
2022-07-25T07:57:11.707Z,24.82
2022-07-25T07:59:17.337Z,24.72
2022-07-25T08:01:21.497Z,25.05
2022-07-25T08:03:33.025Z,24.93
2022-07-25T08:05:39.833Z,24.75
2022-07-25T08:07:45.844Z,24.55
2022-07-25T08:09:56.646Z,24.00
2022-07-25T08:12:00.649Z,24.35
2022-07-25T08:14:05.824Z,24.58
2022-07-25T08:16:26.512Z,24.28
2022-07-25T08:18:32.973Z,24.26
2022-07-25T08:20:50.207Z,24.13
2022-07-25T08:22:56.349Z,25.36
2022-07-25T08:25:05.008Z,25.29
2022-07-25T08:27:16.411Z,25.16
2022-07-25T08:29:38.237Z,25.16
2022-07-25T08:31:40.131Z,25.23
2022-07-25T08:33:49.057Z,25.19
2022-07-25T08:36:06.431Z,24.80
2022-07-25T08:38:11.841Z,25.22
2022-07-25T08:40:38.504Z,25.04
2022-07-25T08:42:48.889Z,24.38
2022-07-25T08:45:03.412Z,23.38
2022-07-25T08:47:19.975Z,23.74
2022-07-25T08:49:36.636Z,25.12
2022-07-25T08:51:54.286Z,24.76
2022-07-25T08:54:06.857Z,25.37
2022-07-25T08:56:14.535Z,24.47
2022-07-25T08:58:24.001Z,24.33
2022-07-25T09:00:32.045Z,24.29
2022-07-25T09:03:02.308Z,24.70
2022-07-25T09:05:20.363Z,25.12
2022-07-25T09:07:54.677Z,25.24
2022-07-25T09:09:56.671Z,24.52
2022-07-25T09:11:59.057Z,24.30
2022-07-25T09:14:05.157Z,25.11
2022-07-25T09:16:34.199Z,25.28
2022-07-25T09:18:38.316Z,25.25
2022-07-25T09:20:52.037Z,25.36
2022-07-25T09:22:54.054Z,25.36
2022-07-25T09:24:56.269Z,25.51
2022-07-25T09:27:24.312Z,25.42
2022-07-25T09:29:29.320Z,25.56
2022-07-25T09:31:40.816Z,25.43
2022-07-25T09:33:57.228Z,25.92
2022-07-25T09:35:59.332Z,25.73
2022-07-25T09:38:09.663Z,25.21
2022-07-25T09:40:16.891Z,25.90
2022-07-25T09:42:37.446Z,26.80
2022-07-25T09:44:40.433Z,26.31
2022-07-25T09:46:51.817Z,25.90
2022-07-25T09:48:56.958Z,26.30
2022-07-25T09:51:20.435Z,26.19
2022-07-25T09:53:25.000Z,25.84
2022-07-25T09:55:29.246Z,25.83
2022-07-25T09:57:31.192Z,25.87
2022-07-25T09:59:36.008Z,25.69
2022-07-25T10:01:56.723Z,25.71
2022-07-25T10:04:32.881Z,25.38
2022-07-25T10:07:01.308Z,25.90
2022-07-25T10:09:41.381Z,25.73
2022-07-25T10:12:19.080Z,25.86
2022-07-25T10:14:27.513Z,25.41
2022-07-25T10:16:34.147Z,25.70
2022-07-25T10:18:49.667Z,25.76
2022-07-25T10:21:26.434Z,26.27
2022-07-25T10:23:36.617Z,26.12
2022-07-25T10:25:39.606Z,25.69
2022-07-25T10:27:51.067Z,25.64
2022-07-25T10:29:56.164Z,25.71
2022-07-25T10:32:13.953Z,26.03
2022-07-25T10:34:16.105Z,25.83
2022-07-25T10:36:21.120Z,25.81
2022-07-25T10:38:28.879Z,26.21
2022-07-25T10:40:49.623Z,26.28
2022-07-25T10:43:28.025Z,26.55
2022-07-25T10:45:43.760Z,25.84
2022-07-25T10:47:56.240Z,25.47
2022-07-25T10:50:34.797Z,25.26
2022-07-25T10:52:31.321Z,25.25
2022-07-25T10:54:41.646Z,25.41
2022-07-25T10:57:04.329Z,25.25
2022-07-25T10:59:07.584Z,25.36
2022-07-25T11:01:10.043Z,25.38
2022-07-25T11:03:17.872Z,25.63
2022-07-25T11:05:45.963Z,25.46
2022-07-25T11:08:23.647Z,26.06
2022-07-25T11:10:37.019Z,26.10
2022-07-25T11:12:51.946Z,25.98
2022-07-25T11:15:31.637Z,25.93
2022-07-25T11:17:50.802Z,26.13
2022-07-25T11:19:58.561Z,26.37
2022-07-25T11:22:04.706Z,26.08
2022-07-25T11:24:08.707Z,25.74
2022-07-25T11:26:16.461Z,26.00
2022-07-25T11:28:24.177Z,26.05
2022-07-25T11:30:31.199Z,25.95
2022-07-25T11:32:58.976Z,25.77
2022-07-25T11:35:04.465Z,25.34
2022-07-25T11:37:14.484Z,25.11
2022-07-25T11:39:19.126Z,24.93
2022-07-25T11:41:30.811Z,25.32
2022-07-25T11:43:32.917Z,25.01
2022-07-25T11:45:37.496Z,25.08
2022-07-25T11:47:46.373Z,25.27
2022-07-25T11:49:57.134Z,25.35
2022-07-25T11:52:05.128Z,25.05
2022-07-25T11:54:36.058Z,25.24
2022-07-25T11:56:43.012Z,25.46
2022-07-25T11:58:58.205Z,25.41
2022-07-25T12:01:15.770Z,25.27
2022-07-25T12:03:23.422Z,25.56
2022-07-25T12:05:33.214Z,25.36
2022-07-25T12:08:21.676Z,24.96
2022-07-25T12:10:36.615Z,25.27
2022-07-25T12:12:46.295Z,25.21
2022-07-25T12:14:52.595Z,24.79
2022-07-25T12:17:24.107Z,25.00
2022-07-25T12:19:40.237Z,24.85
2022-07-25T12:21:55.009Z,24.95
2022-07-25T12:24:02.196Z,25.11
2022-07-25T12:26:14.683Z,25.47
2022-07-25T12:28:24.858Z,25.57
2022-07-25T12:30:40.744Z,25.13
2022-07-25T12:32:49.132Z,25.19
2022-07-25T12:35:09.894Z,25.60
2022-07-25T12:37:17.020Z,25.10
2022-07-25T12:39:25.941Z,25.51
2022-07-25T12:42:06.574Z,25.49
2022-07-25T12:44:09.567Z,25.37
2022-07-25T12:46:13.557Z,25.58
2022-07-25T12:48:22.792Z,25.78
2022-07-25T12:50:26.153Z,25.71
2022-07-25T12:52:29.371Z,25.84
2022-07-25T12:54:56.787Z,25.78
2022-07-25T12:57:01.291Z,25.46
2022-07-25T12:59:08.680Z,25.68
2022-07-25T13:01:18.225Z,25.51
2022-07-25T13:03:22.268Z,25.63
2022-07-25T13:05:25.680Z,25.67
2022-07-25T13:07:27.758Z,25.85
2022-07-25T13:09:29.824Z,25.90
2022-07-25T13:11:37.874Z,25.82
2022-07-25T13:13:39.843Z,25.72
2022-07-25T13:15:49.259Z,25.67
2022-07-25T13:17:51.342Z,25.42
2022-07-25T13:19:54.332Z,25.74
2022-07-25T13:21:56.403Z,25.74
2022-07-25T13:24:08.407Z,25.95
2022-07-25T13:26:12.548Z,25.78
2022-07-25T13:28:15.592Z,25.73
2022-07-25T13:30:23.721Z,25.60
2022-07-25T13:32:32.030Z,25.66
2022-07-25T13:34:46.791Z,25.55
2022-07-25T13:36:49.871Z,25.90
2022-07-25T13:38:51.926Z,25.86
2022-07-25T13:40:58.702Z,25.82
2022-07-25T13:43:46.627Z,25.89
2022-07-25T13:45:57.677Z,26.08
2022-07-25T13:48:29.932Z,25.88
2022-07-25T13:50:33.871Z,25.93
2022-07-25T13:52:44.694Z,25.81
2022-07-25T13:54:53.859Z,25.43
2022-07-25T13:57:44.533Z,25.68
2022-07-25T13:59:52.520Z,25.98
2022-07-25T14:02:32.180Z,25.87
2022-07-25T14:04:46.579Z,25.99
2022-07-25T14:06:56.575Z,25.74
2022-07-25T14:09:32.363Z,25.89
2022-07-25T14:12:02.593Z,26.10
2022-07-25T14:14:04.541Z,25.88
2022-07-25T14:16:16.815Z,25.93
2022-07-25T14:18:21.779Z,25.97
2022-07-25T14:20:25.894Z,25.97
2022-07-25T14:22:45.245Z,26.27
2022-07-25T14:24:47.363Z,26.07
2022-07-25T14:26:58.899Z,26.16
2022-07-25T14:29:01.308Z,26.01
2022-07-25T14:31:19.492Z,25.98
2022-07-25T14:33:31.489Z,26.02
2022-07-25T14:35:48.742Z,25.95
2022-07-25T14:37:56.568Z,26.02
2022-07-25T14:40:05.199Z,26.09
2022-07-25T14:42:11.411Z,25.92
2022-07-25T14:44:33.827Z,25.96
2022-07-25T14:46:36.249Z,25.97
2022-07-25T14:48:40.611Z,25.90
2022-07-25T14:50:54.883Z,25.80
2022-07-25T14:53:00.773Z,25.97
2022-07-25T14:55:02.896Z,25.79
2022-07-25T14:57:09.720Z,25.99
2022-07-25T14:59:19.941Z,25.77
2022-07-25T15:01:26.861Z,25.75
2022-07-25T15:03:28.996Z,25.72
2022-07-25T15:05:31.030Z,25.83
2022-07-25T15:07:40.705Z,25.93
2022-07-25T15:09:44.669Z,25.90
2022-07-25T15:11:53.476Z,25.94
2022-07-25T15:13:55.456Z,25.80
2022-07-25T15:15:57.950Z,25.87
2022-07-25T15:18:08.344Z,25.81
2022-07-25T15:20:12.794Z,25.82
2022-07-25T15:22:24.238Z,25.83
2022-07-25T15:24:29.233Z,25.85
2022-07-25T15:26:32.605Z,25.82
2022-07-25T15:28:37.086Z,25.77
2022-07-25T15:30:39.069Z,25.75
2022-07-25T15:32:42.005Z,25.77
2022-07-25T15:34:43.982Z,25.80
2022-07-25T15:36:47.955Z,25.69
2022-07-25T15:38:50.101Z,25.80
2022-07-25T15:40:53.383Z,25.85
2022-07-25T15:42:55.339Z,25.80
2022-07-25T15:45:22.245Z,25.92
2022-07-25T15:47:19.377Z,25.93
2022-07-25T15:49:22.625Z,25.82
2022-07-25T15:51:25.965Z,25.78
2022-07-25T15:53:29.478Z,25.78
2022-07-25T15:55:33.773Z,25.82
2022-07-25T15:57:35.708Z,25.84
2022-07-25T15:59:43.515Z,25.84
2022-07-25T16:01:46.493Z,25.84
2022-07-25T16:03:48.621Z,25.82
2022-07-25T16:05:50.608Z,25.95
2022-07-25T16:07:52.561Z,25.78
2022-07-25T16:09:55.840Z,25.86
2022-07-25T16:11:59.576Z,25.87
2022-07-25T16:14:01.680Z,26.03
2022-07-25T16:16:04.693Z,26.01
2022-07-25T16:18:07.750Z,25.94
2022-07-25T16:20:10.513Z,25.95
2022-07-25T16:22:12.433Z,25.87
2022-07-25T16:24:14.313Z,25.95
2022-07-25T16:26:16.268Z,25.87
2022-07-25T16:28:22.242Z,25.92
2022-07-25T16:30:30.360Z,25.93
2022-07-25T16:32:39.284Z,25.76
2022-07-25T16:34:41.745Z,25.83
2022-07-25T16:36:43.805Z,25.78
2022-07-25T16:38:47.905Z,25.80
2022-07-25T16:40:49.803Z,25.80
2022-07-25T16:42:55.843Z,25.73
2022-07-25T16:44:58.781Z,25.77
2022-07-25T16:47:00.972Z,25.72
2022-07-25T16:49:03.553Z,25.75
2022-07-25T16:51:05.837Z,25.73
2022-07-25T16:53:07.801Z,25.68
2022-07-25T16:55:10.740Z,25.64
2022-07-25T16:57:12.768Z,25.57
2022-07-25T16:59:14.745Z,25.60
2022-07-25T17:01:17.377Z,25.60
2022-07-25T17:03:19.482Z,25.59
2022-07-25T17:05:21.718Z,25.55
2022-07-25T17:07:23.905Z,25.55
2022-07-25T17:09:25.959Z,25.55
2022-07-25T17:11:27.989Z,25.51
2022-07-25T17:13:29.903Z,25.41
2022-07-25T17:15:33.042Z,25.52
2022-07-25T17:17:36.063Z,25.43
2022-07-25T17:19:40.351Z,25.44
2022-07-25T17:21:42.527Z,25.40
2022-07-25T17:23:45.025Z,25.33
2022-07-25T17:25:50.624Z,25.36
2022-07-25T17:27:52.945Z,25.25
2022-07-25T17:29:54.894Z,25.26
2022-07-25T17:31:56.969Z,25.26
2022-07-25T17:33:58.958Z,25.22
2022-07-25T17:36:03.013Z,25.20
2022-07-25T17:38:05.013Z,25.16
2022-07-25T17:40:09.337Z,25.14
2022-07-25T17:42:11.383Z,25.04
2022-07-25T17:44:14.651Z,25.01
2022-07-25T17:46:16.907Z,25.00
2022-07-25T17:48:18.922Z,24.84
2022-07-25T17:50:28.670Z,24.91
2022-07-25T17:52:31.495Z,24.88
2022-07-25T17:54:33.634Z,24.82
2022-07-25T17:56:35.695Z,24.70
2022-07-25T17:58:39.596Z,24.70
2022-07-25T18:00:41.600Z,24.65
2022-07-25T18:02:43.648Z,24.57
2022-07-25T18:04:47.673Z,24.51
2022-07-25T18:06:56.879Z,24.42
2022-07-25T18:09:05.881Z,24.31
2022-07-25T18:11:15.957Z,24.23
2022-07-25T18:13:18.737Z,24.10
2022-07-25T18:15:20.797Z,24.02
2022-07-25T18:17:28.423Z,23.86
2022-07-25T18:19:30.421Z,23.89
2022-07-25T18:21:32.339Z,23.77
2022-07-25T18:23:41.331Z,23.66
2022-07-25T18:25:52.313Z,23.69
2022-07-25T18:27:55.334Z,23.64
2022-07-25T18:29:59.295Z,23.49
2022-07-25T18:32:03.272Z,23.37
2022-07-25T18:34:06.576Z,23.30
2022-07-25T18:36:10.026Z,23.25
2022-07-25T18:38:12.290Z,23.19
2022-07-25T18:40:15.348Z,23.11
2022-07-25T18:42:17.315Z,23.05
2022-07-25T18:44:19.642Z,22.93
2022-07-25T18:46:21.625Z,22.85
2022-07-25T18:48:28.862Z,22.84
2022-07-25T18:50:31.865Z,22.69
2022-07-25T18:52:37.632Z,22.65
2022-07-25T18:54:40.568Z,22.61
2022-07-25T18:56:44.490Z,22.57
2022-07-25T18:58:47.393Z,22.55
2022-07-25T19:00:51.456Z,22.39
2022-07-25T19:02:53.569Z,22.40
2022-07-25T19:05:01.945Z,22.35
2022-07-25T19:07:05.132Z,22.32
2022-07-25T19:09:08.577Z,22.23
2022-07-25T19:11:12.743Z,22.13
2022-07-25T19:13:39.026Z,22.19
2022-07-25T19:15:40.829Z,22.07
2022-07-25T19:17:43.979Z,21.97
2022-07-25T19:19:48.004Z,21.94
2022-07-25T19:21:56.880Z,21.97
2022-07-25T19:23:58.873Z,21.95
2022-07-25T19:26:17.101Z,21.87
2022-07-25T19:28:20.370Z,21.91
2022-07-25T19:30:22.352Z,21.89
2022-07-25T19:32:25.305Z,21.74
2022-07-25T19:34:29.283Z,21.70
2022-07-25T19:36:38.338Z,21.65
2022-07-25T19:38:42.687Z,21.62
2022-07-25T19:40:44.691Z,21.56
2022-07-25T19:42:50.736Z,21.47
2022-07-25T19:44:56.745Z,21.50
2022-07-25T19:46:59.267Z,21.39
2022-07-25T19:49:10.204Z,21.42
2022-07-25T19:51:12.341Z,21.36
2022-07-25T19:53:14.435Z,21.22
2022-07-25T19:55:17.465Z,21.21
2022-07-25T19:57:19.402Z,21.20
2022-07-25T19:59:21.431Z,21.20
2022-07-25T20:01:23.520Z,21.12
2022-07-25T20:03:31.752Z,20.95
2022-07-25T20:05:36.868Z,20.96
2022-07-25T20:07:38.912Z,21.00
2022-07-25T20:09:46.785Z,20.98
2022-07-25T20:11:49.815Z,20.93
2022-07-25T20:13:51.811Z,20.88
2022-07-25T20:15:54.497Z,20.85
2022-07-25T20:17:57.439Z,20.71
2022-07-25T20:20:00.494Z,20.78
2022-07-25T20:22:05.038Z,20.73
2022-07-25T20:24:09.140Z,20.74
2022-07-25T20:26:17.021Z,20.72
2022-07-25T20:28:22.351Z,20.60
2022-07-25T20:30:32.987Z,20.62
2022-07-25T20:32:43.030Z,20.60
2022-07-25T20:34:46.223Z,20.41
2022-07-25T20:36:48.493Z,20.47
2022-07-25T20:38:50.859Z,20.46
2022-07-25T20:40:52.893Z,20.40
2022-07-25T20:42:56.081Z,20.34
2022-07-25T20:45:03.317Z,20.36
2022-07-25T20:47:06.430Z,20.31
2022-07-25T20:49:13.713Z,20.35
2022-07-25T20:51:16.996Z,20.26
2022-07-25T20:53:19.985Z,20.15
2022-07-25T20:55:22.585Z,20.12
2022-07-25T20:57:24.728Z,20.07
2022-07-25T20:59:27.357Z,20.00
2022-07-25T21:01:31.044Z,20.02
2022-07-25T21:03:35.628Z,20.00
2022-07-25T21:05:43.063Z,19.92
2022-07-25T21:07:45.058Z,19.89
2022-07-25T21:09:49.877Z,19.97
2022-07-25T21:11:51.869Z,19.93
2022-07-25T21:13:53.837Z,19.91
2022-07-25T21:15:56.496Z,19.87
2022-07-25T21:17:58.979Z,19.83
2022-07-25T21:20:01.348Z,19.78
2022-07-25T21:22:03.391Z,19.78
2022-07-25T21:24:06.688Z,19.78
2022-07-25T21:26:11.051Z,19.82
2022-07-25T21:28:13.082Z,19.78
2022-07-25T21:30:16.191Z,19.74
2022-07-25T21:32:18.934Z,19.67
2022-07-25T21:34:20.958Z,19.72
2022-07-25T21:36:23.385Z,19.64
2022-07-25T21:38:26.093Z,19.62
2022-07-25T21:40:29.834Z,19.63
2022-07-25T21:42:31.857Z,19.66
2022-07-25T21:44:34.755Z,19.63
2022-07-25T21:46:36.715Z,19.70
2022-07-25T21:48:57.723Z,19.70
2022-07-25T21:50:59.592Z,19.69
2022-07-25T21:53:13.978Z,19.72
2022-07-25T21:55:16.157Z,19.69
2022-07-25T21:57:18.221Z,19.71
2022-07-25T21:59:20.180Z,19.70
2022-07-25T22:01:22.349Z,19.73
2022-07-25T22:03:24.413Z,19.75
2022-07-25T22:05:29.617Z,19.76
2022-07-25T22:07:31.520Z,19.64
2022-07-25T22:09:33.467Z,19.70
2022-07-25T22:11:42.231Z,19.66
2022-07-25T22:13:48.299Z,19.56
2022-07-25T22:15:50.176Z,19.66
2022-07-25T22:17:52.089Z,19.53
2022-07-25T22:19:54.111Z,19.54
2022-07-25T22:21:56.179Z,19.50
2022-07-25T22:23:58.128Z,19.43
2022-07-25T22:26:00.974Z,19.46
2022-07-25T22:28:02.943Z,19.48
2022-07-25T22:30:14.834Z,19.38
2022-07-25T22:32:20.191Z,19.41
2022-07-25T22:34:22.278Z,19.46
2022-07-25T22:36:24.363Z,19.43
2022-07-25T22:38:26.372Z,19.40
2022-07-25T22:40:28.353Z,19.39
2022-07-25T22:42:30.287Z,19.41
2022-07-25T22:44:32.181Z,19.40
2022-07-25T22:46:34.907Z,19.36
2022-07-25T22:48:37.831Z,19.22
2022-07-25T22:50:39.828Z,19.19
2022-07-25T22:52:42.884Z,19.03
2022-07-25T22:54:45.054Z,19.02
2022-07-25T22:56:46.974Z,18.94
2022-07-25T22:58:49.467Z,18.88
2022-07-25T23:00:53.890Z,18.83
2022-07-25T23:02:56.077Z,18.89
2022-07-25T23:04:58.045Z,18.87
2022-07-25T23:07:08.939Z,18.73
2022-07-25T23:09:13.732Z,18.67
2022-07-25T23:11:15.875Z,18.67
2022-07-25T23:13:17.926Z,18.64
2022-07-25T23:15:19.879Z,18.64
2022-07-25T23:17:21.931Z,18.60
2022-07-25T23:19:23.898Z,18.60
2022-07-25T23:21:26.352Z,18.61
2022-07-25T23:23:28.322Z,18.57
2022-07-25T23:25:30.354Z,18.54
2022-07-25T23:27:35.037Z,18.60
2022-07-25T23:29:39.368Z,18.61
2022-07-25T23:31:41.432Z,18.64
2022-07-25T23:33:43.378Z,18.62
2022-07-25T23:35:47.127Z,18.61
2022-07-25T23:37:51.037Z,18.56
2022-07-25T23:39:53.971Z,18.56
2022-07-25T23:41:55.895Z,18.57
2022-07-25T23:43:59.539Z,18.59
2022-07-25T23:46:01.932Z,18.66
2022-07-25T23:48:05.679Z,18.67
2022-07-25T23:50:08.890Z,18.63
2022-07-25T23:52:10.868Z,18.51
2022-07-25T23:54:12.882Z,18.48
2022-07-25T23:56:20.229Z,18.45
2022-07-25T23:58:24.729Z,18.45
